Ackworth, Iowa
Current Conditions -  °F | °C
As of 10:54 AM on Saturday 25 Oct 2014 (Local Time) from KDSM Reporting Station
Few Clouds Few Clouds  
Wind Chill: 64°   Ceiling: Unl
Heat Index: 64°   Visibility: 10mi
Dew Point: 44°   Wind: 7mph
Humidity: 48%   Direction: 20°NNE
Pressure: 30.1"   Gusts: NA
Location:  41.37°N, 93.47°W
Report Text: KDSM 251554Z 02006KT 10SM FEW250 18/07 A3010 RMK AO2 SLP193 T01780067 $
Loading
Personal Weather Stations






























Interactive Weather Map
Tropical Storm Tracking
New forecast layout! Learn more

10-Day Weather Forecast

Advertisements
Track Severe Weather on mobile